createdAt,value
2018-03-11T00:00:02.622Z,12.20
2018-03-11T00:03:12.939Z,15.00
2018-03-11T00:06:26.220Z,17.52
2018-03-11T00:09:37.171Z,16.55
2018-03-11T00:12:47.646Z,15.63
2018-03-11T00:15:57.600Z,16.75
2018-03-11T00:19:14.949Z,15.60
2018-03-11T00:22:25.506Z,15.93
2018-03-11T00:25:35.324Z,18.37
2018-03-11T00:28:45.477Z,16.85
2018-03-11T00:31:55.910Z,17.10
2018-03-11T00:35:06.442Z,15.57
2018-03-11T00:38:16.459Z,19.10
2018-03-11T00:41:26.790Z,17.00
2018-03-11T00:44:37.583Z,15.35
2018-03-11T00:47:48.694Z,15.27
2018-03-11T00:50:58.748Z,16.40
2018-03-11T00:54:09.105Z,16.62
2018-03-11T00:57:19.595Z,16.45
2018-03-11T01:00:29.644Z,13.10
2018-03-11T01:03:40.407Z,14.63
2018-03-11T01:06:50.552Z,14.87
2018-03-11T01:10:01.073Z,15.57
2018-03-11T01:13:11.781Z,14.63
2018-03-11T01:16:21.652Z,12.02
2018-03-11T01:19:32.471Z,13.32
2018-03-11T01:22:42.851Z,12.27
2018-03-11T01:25:53.075Z,12.13
2018-03-11T01:29:03.075Z,15.75
2018-03-11T01:32:13.668Z,13.27
2018-03-11T01:35:24.008Z,13.35
2018-03-11T01:38:34.290Z,12.68
2018-03-11T01:41:44.779Z,14.87
2018-03-11T01:44:54.492Z,14.32
2018-03-11T01:48:04.416Z,13.30
2018-03-11T01:51:14.304Z,13.18
2018-03-11T01:54:24.396Z,10.30
2018-03-11T01:57:34.558Z,11.40
2018-03-11T02:00:44.527Z,9.60
2018-03-11T02:03:54.677Z,12.93
2018-03-11T02:07:04.240Z,12.93
2018-03-11T02:10:14.649Z,14.35
2018-03-11T02:13:24.581Z,15.07
2018-03-11T02:16:35.036Z,13.05
2018-03-11T02:19:44.989Z,11.55
2018-03-11T02:22:55.158Z,14.68
2018-03-11T02:26:05.169Z,15.38
2018-03-11T02:29:16.161Z,12.20
2018-03-11T02:32:26.472Z,13.02
2018-03-11T02:35:36.999Z,13.23
2018-03-11T02:38:48.030Z,12.90
2018-03-11T02:41:58.448Z,11.25
2018-03-11T02:45:08.731Z,15.10
2018-03-11T02:48:19.256Z,15.30
2018-03-11T02:51:29.816Z,15.48
2018-03-11T02:54:40.887Z,12.65
2018-03-11T02:57:50.757Z,14.15
2018-03-11T03:01:00.562Z,12.43
2018-03-11T03:04:10.659Z,17.58
2018-03-11T03:07:20.650Z,13.88
2018-03-11T03:10:30.456Z,12.27
2018-03-11T03:13:40.558Z,12.88
2018-03-11T03:16:50.522Z,14.60
2018-03-11T03:20:01.490Z,15.00
2018-03-11T03:23:11.702Z,19.35
2018-03-11T03:26:21.613Z,17.17
2018-03-11T03:29:31.788Z,15.95
2018-03-11T03:32:41.850Z,18.08
2018-03-11T03:35:51.925Z,14.77
2018-03-11T03:39:03.224Z,14.13
2018-03-11T03:42:13.734Z,13.45
2018-03-11T03:45:24.255Z,15.38
2018-03-11T03:48:35.239Z,14.45
2018-03-11T03:51:45.775Z,18.23
2018-03-11T03:54:55.885Z,13.95
2018-03-11T03:58:05.923Z,12.15
2018-03-11T04:01:16.237Z,18.30
2018-03-11T04:04:26.475Z,17.27
2018-03-11T04:07:36.911Z,15.40
2018-03-11T04:10:47.300Z,13.20
2018-03-11T04:13:57.396Z,11.85
2018-03-11T04:17:07.598Z,15.05
2018-03-11T04:20:17.994Z,11.43
2018-03-11T04:23:28.066Z,12.00
2018-03-11T04:26:38.394Z,14.20
2018-03-11T04:29:48.092Z,12.37
2018-03-11T04:32:58.674Z,14.02
2018-03-11T04:36:08.892Z,12.30
2018-03-11T04:39:18.875Z,12.98
2018-03-11T04:42:29.932Z,13.52
2018-03-11T04:45:40.386Z,14.38
2018-03-11T04:48:50.326Z,12.82
2018-03-11T04:52:00.328Z,12.32
2018-03-11T04:55:10.382Z,15.13
2018-03-11T04:58:20.476Z,16.50
2018-03-11T05:01:30.562Z,13.27
2018-03-11T05:04:40.713Z,11.90
2018-03-11T05:07:51.165Z,12.77
2018-03-11T05:11:01.008Z,14.32
2018-03-11T05:14:11.452Z,14.63
2018-03-11T05:17:22.111Z,13.75
2018-03-11T05:20:32.962Z,12.50
2018-03-11T05:23:44.469Z,13.80
2018-03-11T05:26:54.338Z,11.77
2018-03-11T05:30:04.248Z,15.70
2018-03-11T05:33:14.991Z,15.13
2018-03-11T05:36:25.099Z,17.70
2018-03-11T05:39:35.475Z,16.60
2018-03-11T05:42:45.739Z,15.98
2018-03-11T05:45:55.739Z,15.57
2018-03-11T05:49:05.872Z,17.37
2018-03-11T05:52:17.009Z,15.85
2018-03-11T05:55:27.467Z,12.48
2018-03-11T05:58:37.694Z,14.18
2018-03-11T06:01:48.942Z,14.52
2018-03-11T06:05:00.219Z,15.30
2018-03-11T06:08:10.866Z,12.65
2018-03-11T06:11:20.934Z,12.60
2018-03-11T06:14:31.072Z,14.05
2018-03-11T06:17:41.310Z,13.93
2018-03-11T06:20:51.331Z,17.00
2018-03-11T06:24:01.397Z,17.55
2018-03-11T06:27:11.494Z,17.73
2018-03-11T06:30:21.716Z,13.38
2018-03-11T06:33:32.324Z,14.77
2018-03-11T06:36:42.403Z,16.62
2018-03-11T06:39:52.299Z,15.80
2018-03-11T06:43:02.539Z,14.40
2018-03-11T06:46:12.427Z,16.30
2018-03-11T06:49:22.268Z,19.98
2018-03-11T06:52:33.137Z,15.57
2018-03-11T06:55:43.548Z,16.52
2018-03-11T06:58:54.422Z,16.05
2018-03-11T07:02:04.842Z,15.85
2018-03-11T07:05:14.925Z,19.25
2018-03-11T07:08:25.255Z,17.67
2018-03-11T07:11:36.568Z,17.75
2018-03-11T07:14:46.812Z,18.00
2018-03-11T07:17:57.049Z,15.52
2018-03-11T07:21:07.678Z,15.98
2018-03-11T07:24:17.764Z,19.27
2018-03-11T07:27:28.732Z,15.27
2018-03-11T07:30:38.476Z,16.92
2018-03-11T07:33:49.139Z,17.73
2018-03-11T07:36:59.545Z,19.35
2018-03-11T07:40:10.215Z,15.05
2018-03-11T07:43:20.525Z,14.48
2018-03-11T07:46:30.636Z,15.25
2018-03-11T07:49:43.665Z,16.15
2018-03-11T07:52:55.085Z,11.35
2018-03-11T07:56:05.447Z,16.52
2018-03-11T07:59:17.194Z,14.45
2018-03-11T08:02:27.765Z,10.95
2018-03-11T08:05:38.531Z,13.57
2018-03-11T08:08:48.602Z,12.20
2018-03-11T08:12:02.506Z,12.35
2018-03-11T08:15:13.420Z,10.73
2018-03-11T08:18:23.491Z,13.55
2018-03-11T08:21:37.145Z,13.80
2018-03-11T08:24:47.532Z,11.95
2018-03-11T08:28:00.258Z,10.55
2018-03-11T08:31:12.532Z,9.48
2018-03-11T08:34:24.077Z,10.27
2018-03-11T08:37:34.673Z,9.52
2018-03-11T08:40:46.137Z,13.10
2018-03-11T08:43:57.688Z,11.20
2018-03-11T08:47:07.809Z,14.02
2018-03-11T08:50:18.173Z,10.48
2018-03-11T08:53:28.496Z,13.82
2018-03-11T08:56:38.720Z,8.07
2018-03-11T08:59:50.030Z,9.52
2018-03-11T09:03:00.381Z,8.90
2018-03-11T09:06:10.799Z,9.52
2018-03-11T09:09:22.497Z,7.45
2018-03-11T09:12:33.716Z,8.25
2018-03-11T09:15:44.721Z,7.20
2018-03-11T09:18:55.658Z,9.27
2018-03-11T09:22:06.121Z,8.50
2018-03-11T09:25:16.709Z,7.90
2018-03-11T09:28:27.295Z,9.55
2018-03-11T09:31:37.414Z,8.65
2018-03-11T09:34:47.375Z,9.35
2018-03-11T09:37:58.396Z,7.87
2018-03-11T09:41:08.706Z,7.93
2018-03-11T09:44:19.417Z,7.87
2018-03-11T09:47:30.145Z,8.75
2018-03-11T09:50:40.354Z,10.38
2018-03-11T09:53:51.994Z,7.12
2018-03-11T09:57:02.753Z,7.75
2018-03-11T10:00:13.441Z,7.45
2018-03-11T10:03:23.397Z,9.20
2018-03-11T10:06:33.575Z,8.50
2018-03-11T10:09:43.635Z,7.10
2018-03-11T10:12:53.480Z,6.72
2018-03-11T10:16:04.022Z,7.62
2018-03-11T10:19:14.158Z,6.55
2018-03-11T10:22:25.086Z,6.32
2018-03-11T10:25:36.181Z,6.85
2018-03-11T10:28:46.609Z,10.88
2018-03-11T10:32:01.140Z,9.82
2018-03-11T10:35:12.074Z,8.00
2018-03-11T10:38:23.578Z,6.72
2018-03-11T10:41:34.605Z,6.57
2018-03-11T10:44:45.150Z,6.20
2018-03-11T10:47:55.467Z,5.93
2018-03-11T10:51:05.499Z,6.68
2018-03-11T10:54:15.436Z,6.35
2018-03-11T10:57:26.184Z,7.00
2018-03-11T11:00:41.777Z,7.55
2018-03-11T11:03:52.915Z,6.62
2018-03-11T11:07:03.672Z,6.75
2018-03-11T11:10:13.672Z,6.68
2018-03-11T11:13:23.557Z,7.82
2018-03-11T11:16:33.618Z,7.10
2018-03-11T11:19:44.324Z,7.15
2018-03-11T11:22:54.339Z,6.65
2018-03-11T11:26:04.188Z,7.70
2018-03-11T11:29:14.718Z,7.12
2018-03-11T11:32:24.930Z,7.97
2018-03-11T11:35:35.998Z,7.82
2018-03-11T11:38:46.233Z,7.47
2018-03-11T11:41:56.172Z,8.15
2018-03-11T11:45:06.921Z,7.45
2018-03-11T11:48:16.862Z,7.75
2018-03-11T11:51:27.584Z,8.07
2018-03-11T11:54:38.553Z,8.02
2018-03-11T11:57:49.397Z,8.75
2018-03-11T12:00:59.641Z,8.48
2018-03-11T12:04:10.434Z,7.43
2018-03-11T12:07:23.168Z,9.07
2018-03-11T12:10:34.370Z,9.10
2018-03-11T12:13:45.098Z,8.80
2018-03-11T12:16:55.563Z,9.00
2018-03-11T12:20:07.086Z,12.00
2018-03-11T12:23:17.517Z,7.65
2018-03-11T12:26:28.200Z,8.07
2018-03-11T12:29:38.921Z,9.40
2018-03-11T12:32:49.667Z,7.90
2018-03-11T12:36:00.268Z,7.97
2018-03-11T12:39:10.846Z,8.48
2018-03-11T12:42:21.047Z,7.28
2018-03-11T12:45:31.693Z,8.23
2018-03-11T12:48:42.350Z,7.50
2018-03-11T12:51:53.204Z,7.22
2018-03-11T12:55:04.295Z,7.32
2018-03-11T12:58:14.146Z,8.15
2018-03-11T13:01:24.969Z,8.02
2018-03-11T13:04:35.619Z,8.10
2018-03-11T13:07:46.373Z,8.82
2018-03-11T13:10:58.809Z,7.95
2018-03-11T13:14:09.029Z,8.35
2018-03-11T13:17:19.965Z,7.75
2018-03-11T13:24:09.634Z,7.82
2018-03-11T13:27:19.659Z,7.78
2018-03-11T13:30:30.526Z,8.35
2018-03-11T13:33:52.664Z,9.50
2018-03-11T13:37:02.698Z,8.80
2018-03-11T13:40:24.573Z,8.25
2018-03-11T13:43:34.342Z,8.02
2018-03-11T13:46:55.987Z,9.60
2018-03-11T13:50:07.523Z,8.77
2018-03-11T13:53:30.130Z,8.70
2018-03-11T13:56:41.694Z,9.77
2018-03-11T13:59:51.764Z,8.27
2018-03-11T14:03:01.694Z,8.60
2018-03-11T14:06:12.895Z,9.15
2018-03-11T14:09:24.662Z,8.55
2018-03-11T14:12:35.064Z,8.15
2018-03-11T14:15:46.170Z,8.35
2018-03-11T14:18:57.359Z,8.25
2018-03-11T14:22:07.820Z,8.23
2018-03-11T14:25:17.747Z,9.70
2018-03-11T14:28:29.706Z,10.65
2018-03-11T14:31:41.036Z,13.50
2018-03-11T14:34:51.458Z,8.98
2018-03-11T14:38:01.781Z,9.02
2018-03-11T14:41:11.735Z,9.32
2018-03-11T14:44:21.695Z,10.60
2018-03-11T14:47:33.141Z,8.70
2018-03-11T14:50:43.250Z,8.85
2018-03-11T14:53:55.143Z,9.05
2018-03-11T14:57:05.997Z,9.60
2018-03-11T15:00:16.330Z,9.35
2018-03-11T15:03:27.272Z,9.55
2018-03-11T15:06:37.425Z,8.77
2018-03-11T15:09:48.100Z,9.55
2018-03-11T15:12:59.048Z,9.63
2018-03-11T15:16:09.736Z,8.05
2018-03-11T15:19:19.947Z,8.82
2018-03-11T15:22:30.108Z,9.75
2018-03-11T15:25:40.247Z,9.77
2018-03-11T15:28:50.723Z,10.70
2018-03-11T15:32:01.031Z,11.12
2018-03-11T15:35:11.962Z,9.73
2018-03-11T15:38:22.101Z,9.25
2018-03-11T15:41:32.161Z,10.20
2018-03-11T15:44:43.003Z,14.15
2018-03-11T15:47:53.460Z,7.75
2018-03-11T15:51:03.418Z,11.23
2018-03-11T15:54:14.174Z,9.90
2018-03-11T15:57:25.420Z,11.60
2018-03-11T16:00:36.422Z,11.12
2018-03-11T16:03:46.392Z,11.45
2018-03-11T16:06:56.859Z,8.98
2018-03-11T16:10:08.521Z,10.07
2018-03-11T16:13:18.743Z,10.60
2018-03-11T16:16:29.674Z,11.00
2018-03-11T16:19:39.874Z,11.93
2018-03-11T16:22:49.902Z,9.80
2018-03-11T16:25:59.984Z,11.60
2018-03-11T16:29:11.122Z,11.68
2018-03-11T16:32:21.975Z,11.27
2018-03-11T16:35:33.921Z,11.80
2018-03-11T16:38:44.047Z,10.75
2018-03-11T16:41:54.216Z,9.27
2018-03-11T16:45:04.346Z,9.80
2018-03-11T16:48:14.329Z,10.65
2018-03-11T16:51:24.326Z,12.27
2018-03-11T16:54:34.480Z,12.00
2018-03-11T16:57:44.650Z,10.38
2018-03-11T17:00:55.322Z,11.82
2018-03-11T17:04:05.996Z,13.23
2018-03-11T17:07:16.312Z,12.45
2018-03-11T17:10:26.219Z,17.67
2018-03-11T17:13:36.132Z,10.88
2018-03-11T17:16:47.811Z,10.65
2018-03-11T17:19:58.033Z,11.65
2018-03-11T17:23:08.863Z,12.52
2018-03-11T17:26:19.907Z,12.18
2018-03-11T17:29:30.044Z,14.52
2018-03-11T17:32:41.388Z,13.05
2018-03-11T17:35:52.975Z,13.55
2018-03-11T17:39:03.782Z,15.07
2018-03-11T17:42:14.173Z,14.15
2018-03-11T17:45:24.679Z,13.20
2018-03-11T17:48:34.614Z,15.68
2018-03-11T17:51:45.091Z,14.68
2018-03-11T17:54:56.527Z,15.75
2018-03-11T17:58:06.801Z,15.20
2018-03-11T18:01:16.863Z,17.98
2018-03-11T18:04:28.241Z,18.35
2018-03-11T18:07:40.250Z,22.58
2018-03-11T18:10:50.478Z,21.33
2018-03-11T18:14:00.421Z,22.37
2018-03-11T18:17:10.395Z,23.00
2018-03-11T18:20:20.331Z,24.90
2018-03-11T18:23:31.818Z,21.67
2018-03-11T18:26:42.235Z,25.67
2018-03-11T18:29:52.640Z,23.80
2018-03-11T18:33:03.875Z,25.98
2018-03-11T18:36:14.068Z,22.17
2018-03-11T18:39:25.608Z,25.65
2018-03-11T18:42:36.860Z,21.92
2018-03-11T18:45:47.436Z,24.08
2018-03-11T18:48:57.837Z,26.87
2018-03-11T18:52:09.352Z,24.58
2018-03-11T18:55:20.222Z,23.25
2018-03-11T18:58:31.174Z,30.62
2018-03-11T19:01:42.277Z,26.70
2018-03-11T19:04:52.597Z,23.80
2018-03-11T19:08:02.546Z,25.77
2018-03-11T19:11:12.910Z,27.92
2018-03-11T19:14:23.092Z,23.52
2018-03-11T19:17:33.320Z,20.62
2018-03-11T19:20:43.510Z,25.05
2018-03-11T19:23:53.827Z,24.42
2018-03-11T19:27:05.194Z,22.10
2018-03-11T19:30:15.845Z,24.75
2018-03-11T19:33:26.756Z,24.33
2018-03-11T19:36:36.727Z,24.12
2018-03-11T19:39:46.882Z,23.95
2018-03-11T19:42:57.071Z,23.67
2018-03-11T19:46:08.130Z,24.67
2018-03-11T19:49:18.298Z,22.70
2018-03-11T19:52:28.448Z,22.23
2018-03-11T19:55:38.427Z,22.37
2018-03-11T19:58:48.545Z,27.77
2018-03-11T20:01:58.506Z,27.42
2018-03-11T20:05:09.022Z,24.73
2018-03-11T20:08:20.472Z,19.30
2018-03-11T20:11:31.224Z,23.45
2018-03-11T20:14:41.947Z,21.73
2018-03-11T20:17:52.336Z,25.12
2018-03-11T20:21:02.950Z,23.85
2018-03-11T20:24:13.714Z,24.90
2018-03-11T20:27:23.869Z,24.67
2018-03-11T20:30:33.825Z,24.40
2018-03-11T20:33:43.899Z,27.42
2018-03-11T20:36:54.976Z,24.33
2018-03-11T20:40:04.955Z,24.42
2018-03-11T20:43:15.266Z,21.27
2018-03-11T20:46:25.849Z,21.42
2018-03-11T20:49:36.023Z,25.27
2018-03-11T20:52:46.284Z,21.02
2018-03-11T20:55:56.392Z,24.65
2018-03-11T20:59:07.277Z,19.95
2018-03-11T21:02:18.022Z,24.83
2018-03-11T21:05:28.776Z,22.15
2018-03-11T21:08:39.108Z,21.75
2018-03-11T21:11:49.623Z,27.65
2018-03-11T21:14:59.591Z,19.65
2018-03-11T21:18:10.957Z,26.95
2018-03-11T21:21:20.806Z,26.00
2018-03-11T21:24:31.989Z,23.02
2018-03-11T21:27:42.595Z,25.35
2018-03-11T21:30:52.818Z,20.90
2018-03-11T21:34:03.043Z,23.98
2018-03-11T21:37:13.418Z,22.73
2018-03-11T21:40:23.692Z,22.27
2018-03-11T21:43:34.478Z,22.42
2018-03-11T21:46:45.826Z,23.25
2018-03-11T21:49:56.241Z,25.80
2018-03-11T21:53:07.013Z,26.23
2018-03-11T21:56:16.872Z,26.40
2018-03-11T21:59:26.793Z,24.60
2018-03-11T22:02:36.623Z,20.48
2018-03-11T22:05:47.468Z,24.27
2018-03-11T22:08:57.868Z,22.23
2018-03-11T22:12:08.017Z,24.63
2018-03-11T22:15:18.087Z,23.00
2018-03-11T22:18:28.068Z,21.45
2018-03-11T22:21:37.968Z,23.30
2018-03-11T22:24:48.193Z,25.08
2018-03-11T22:27:58.958Z,24.65
2018-03-11T22:31:09.325Z,23.52
2018-03-11T22:34:20.074Z,21.65
2018-03-11T22:37:30.095Z,25.05
2018-03-11T22:40:40.640Z,24.17
2018-03-11T22:43:51.520Z,23.55
2018-03-11T22:47:01.657Z,24.63
2018-03-11T22:50:11.772Z,20.67
2018-03-11T22:53:21.748Z,21.55
2018-03-11T22:56:31.668Z,20.90
2018-03-11T22:59:41.980Z,27.55
2018-03-11T23:02:51.932Z,24.90
2018-03-11T23:06:01.709Z,25.40
2018-03-11T23:09:12.510Z,23.80
2018-03-11T23:12:22.687Z,24.55
2018-03-11T23:15:32.671Z,25.75
2018-03-11T23:18:55.055Z,25.40
2018-03-11T23:22:04.891Z,23.62
2018-03-11T23:25:14.914Z,23.95
2018-03-11T23:28:25.825Z,26.15
2018-03-11T23:31:36.499Z,27.02
2018-03-11T23:34:46.900Z,25.58
2018-03-11T23:37:56.849Z,24.40
2018-03-11T23:41:07.115Z,27.10
2018-03-11T23:44:17.831Z,25.02
2018-03-11T23:47:27.831Z,22.00
2018-03-11T23:50:38.078Z,22.75
2018-03-11T23:53:48.074Z,27.90
2018-03-11T23:56:58.492Z,26.75
